Wilmar Santos

Scout - Millonarios
29 Okt 2028
Sonntag
Verarbeitung

Persönlichkeit

Anpassungsfähigkeit (15) Ehrgeiz (9) Kontroverse (1) Loyalität (18) Druck (1) Professionalität (8) Fairness (15) Temperament (18)

Profil

Trainerstil Demokratisch
Lizenz Kontinentale Pro
Entschlossenheit 8
Menschenführung 11
Motivation 8
Disziplin 7
Arbeitszufriedenheit
100%
Ermüdung
0%
Rolle Scout
Gehalt 89.6K p/W
Vertrag 14.03.2030

Leistung

Verhalten Gut
Trainingseffektivität
46%
Spielerentwicklung
70%
Verletzungsprävention
55%
Taktische Umsetzung
45%

Letzte Ereignisse

Spieler begutachtet jetzt
Spieler begutachtet jetzt
Nahm an einer Scouting-Besprechung teil jetzt
Empfahl ein Transferziel jetzt
Empfahl ein Transferziel jetzt
Empfahl ein Transferziel jetzt
Nahm an einer Scouting-Besprechung teil jetzt
Spieler begutachtet jetzt

Aktuell beobachtet

330
Spieler Verein Status Fähigkeit Vertrauen Beobachtet Zuletzt beobachtet Letzte Stimme
Tiago Gordillo San Miguel Aktiv 81 / 96 40% 2 28.10.2028 -
Harrison Armstrong Ipswich Town Aktiv 143 / 144 40% 2 28.10.2028 -
Joel Ezra Enyimba Aktiv 100 / 104 40% 1 28.10.2028 -
Esteban Obregón Montevideo City Torque Aktiv 119 / 120 40% 3 27.10.2028 -
Aarón Molinas Defensa y Justicia Aktiv 130 / 129 40% 2 27.10.2028 -
Edison López Atletico Nacional Aktiv 121 / 121 40% 1 27.10.2028 -
Alan Lescano Argentinos Juniors Aktiv 138 / 133 40% 4 25.10.2028 -
Matko Miljevic Racing Club Aktiv 134 / 131 40% 2 25.10.2028 -
Néider Ospina Llaneros Aktiv 126 / 120 40% 2 25.10.2028 -
Mateo Faure BATE Aktiv 96 / 98 40% 3 23.10.2028 -
Juan Cruz de los Santos Nacional Aktiv 130 / 130 40% 4 23.10.2028 -
Andrés Arroyo Atletico Bucaramanga Aktiv 128 / 121 40% 4 23.10.2028 -
Mauro Valiente Estudiantes Aktiv 117 / 116 40% 1 23.10.2028 -
Peyton Miller New England Revolution Aktiv 110 / 122 40% 1 23.10.2028 -
Celías Ingenthron Platense Aktiv 123 / 126 40% 2 22.10.2028 -
Ayyoub Bouaddi Stoke City Aktiv 156 / 159 40% 2 22.10.2028 -
Aarón Martín Al-Qadisiyah Aktiv 120 / 126 40% 1 22.10.2028 -
Alex Luna Instituto Aktiv 139 / 132 40% 5 21.10.2028 -
Daniel Barrea Godoy Cruz Aktiv 126 / 122 40% 2 21.10.2028 -
Jannenson Sarmiento Junior Aktiv 122 / 124 40% 1 21.10.2028 -
Johan Martínez Deportivo Cali Aktiv 122 / 124 40% 1 20.10.2028 -
Diego García Danubio Aktiv 121 / 119 40% 1 17.10.2028 -
Antonio Galeano Remo Stars Aktiv 131 / 128 40% 4 16.10.2028 -
Iñaki Larthirigoyen San Telmo Aktiv 127 / 122 40% 3 16.10.2028 -
Alan Velasco Fortaleza Aktiv 135 / 133 40% 1 16.10.2028 -
Martín Campos Ferro Carril Oeste Aktiv 116 / 117 40% 1 15.10.2028 -
Santiago Solari Racing Club Aktiv 133 / 126 40% 1 15.10.2028 -
Alejo Dramisino Atlanta Aktiv 122 / 119 40% 1 15.10.2028 -
Diego Cheuquepal Racing Aktiv 107 / 108 40% 4 14.10.2028 -
Felipe Obradovich Ferro Carril Oeste Aktiv 110 / 116 40% 1 14.10.2028 -
Chris Rigg West Ham United Aktiv 146 / 147 40% 1 14.10.2028 -
Yuber Quiñónes Patriotas Aktiv 127 / 119 40% 1 14.10.2028 -
Gonzalo Plata Nacional Aktiv 146 / 139 40% 1 14.10.2028 -
Allan Saint-Maximin Charlotte Football Club Aktiv 145 / 141 40% 3 13.10.2028 -
Hernán López Muñoz San Jose Earthquakes Aktiv 130 / 130 40% 3 13.10.2028 -
Alejo Cruz Juventud Aktiv 121 / 123 40% 2 12.10.2028 -
Rodrigo Cabral Huracán Aktiv 127 / 125 40% 2 12.10.2028 -
Cheikh Sabaly Vancouver Whitecaps Aktiv 132 / 126 40% 2 11.10.2028 -
Tomás Pozzo Godoy Cruz Aktiv 124 / 123 40% 5 11.10.2028 -
Giovanni Leoni Lincoln City Aktiv 142 / 151 40% 2 09.10.2028 -
Jonathan De Irastorza Independiente Aktiv 127 / 132 40% 1 09.10.2028 -
Aytor Herrera Mineros de Guayana Aktiv 92 / 94 40% 1 09.10.2028 -
Matías Ramírez Godoy Cruz Aktiv 119 / 120 40% 2 07.10.2028 -
Emiliano Gómez Boston River Aktiv 124 / 121 40% 2 06.10.2028 -
Bryan Castrillón Independiente Medellin Aktiv 119 / 119 40% 1 04.10.2028 -
Mateo Caballero Defensor Sporting Aktiv 102 / 107 40% 2 03.10.2028 -
Nicolás Retamar Ferro Carril Oeste Aktiv 119 / 116 40% 1 03.10.2028 -
Óscar Hinojosa Metropolitanos Aktiv 81 / 88 40% 1 03.10.2028 -
Gideon Manaseh Ikorodu City Aktiv 95 / 99 40% 3 06.09.2028 -
Bruno Leyes Godoy Cruz Aktiv 133 / 129 40% 2 06.09.2028 -
Franco Nicola Liverpool Montevideo Aktiv 126 / 121 40% 1 06.09.2028 -
Alejandro Tapia Central Norte Aktiv 85 / 94 40% 1 06.09.2028 -
Estanislao López Colón Aktiv 96 / 100 40% 1 06.09.2028 -
Alejandro Piedrahita Deportivo Pereira Aktiv 134 / 125 40% 1 04.09.2028 -
Máximo Munarriz San Telmo Aktiv 102 / 107 40% 1 30.08.2028 -
Mauro Carrizo Atlético Tucumán Aktiv 107 / 109 40% 1 29.08.2028 -
Tobías Andrada River Plate Aktiv 120 / 125 40% 1 29.08.2028 -
Luis Otávio Orlando City Aktiv 118 / 122 40% 1 28.08.2028 -
Hosea Michael Remo Stars Aktiv 93 / 93 40% 1 28.08.2028 -
Lautaro Dufur Juventud Aktiv 101 / 106 40% 2 25.08.2028 -
Luca Campagnaro Colón Aktiv 88 / 97 40% 1 25.08.2028 -
Kamaldeen Atiemo Wa All Stars Aktiv 103 / 111 40% 2 24.08.2028 -
Bahodir Halilov Nasaf Aktiv 78 / 90 40% 1 24.08.2028 -
Máximo Magnoli Ferro Carril Oeste Aktiv 100 / 100 40% 1 24.08.2028 -
Agustín Medina Lanús Aktiv 122 / 125 40% 1 23.08.2028 -
Lucas Camejo River Plate Aktiv 92 / 90 40% 2 21.08.2028 -
Abubakar Adams Aduana Stars Aktiv 92 / 93 40% 1 21.08.2028 -
Camillo Tavernelli Arezzo Aktiv 119 / 123 40% 2 20.08.2028 -
Alessio Zerbin Frosinone Aktiv 146 / 138 40% 1 20.08.2028 -
Alessandro Arena Arezzo Aktiv 121 / 123 40% 1 20.08.2028 -
El Bilal Touré Atalanta Aktiv 147 / 145 40% 1 19.08.2028 -
Francisco Machis Llaneros Aktiv 83 / 90 40% 1 19.08.2028 -
Federico Matarán Giana Erminio Aktiv 109 / 118 40% 1 19.08.2028 -
Luciano Cosentino Wanderers Aktiv 126 / 124 40% 2 17.08.2028 -
Unai Gómez Udinese Aktiv 149 / 145 40% 1 16.08.2028 -
Sebastiano Esposito Cagliari Aktiv 158 / 148 40% 3 15.08.2028 -
Musa Barrow ES Setif Aktiv 138 / 141 40% 2 14.08.2028 -
Kristian Thorstvedt Sassuolo Aktiv 145 / 140 40% 1 14.08.2028 -
Antonino Gallo Bari Aktiv 149 / 146 40% 1 14.08.2028 -
Borja Sainz Udinese Aktiv 160 / 155 40% 2 13.08.2028 -
Santiago Pierotti Lecce Aktiv 144 / 141 40% 2 13.08.2028 -
Giacomo Raspadori Atalanta Aktiv 157 / 153 40% 1 13.08.2028 -
Zito Luvumbo Cagliari Aktiv 134 / 137 40% 4 11.08.2028 -
Thierry Rendall Correia Venezia Aktiv 156 / 147 40% 1 11.08.2028 -
Nicolò Zaniolo Udinese Aktiv 152 / 150 40% 1 10.08.2028 -
Jaidon Anthony Derby County Aktiv 150 / 144 40% 8 09.08.2028 -
Carlos Alcaraz Stoke City Aktiv 155 / 155 40% 4 09.08.2028 -
Rodrigo Gomes Wolverhampton Aktiv 152 / 147 40% 2 08.08.2028 -
Cucho Hernández Granada Aktiv 152 / 149 40% 1 08.08.2028 -
Jayden Addai Bari Aktiv 142 / 142 40% 1 08.08.2028 -
Andrey Santos Bolton Wanderers Aktiv 155 / 152 40% 1 07.08.2028 -
Jayden Bogle Leeds United Aktiv 155 / 144 40% 1 07.08.2028 -
Marcel Ruiz Crystal Palace Aktiv 153 / 148 40% 1 07.08.2028 -
Harry Wilson Leeds United Aktiv 153 / 151 40% 6 18.07.2028 -
Isaiah Jones Luton Town Aktiv 134 / 133 40% 2 18.07.2028 -
Nathan Broadhead Wrexham Aktiv 143 / 129 40% 1 18.07.2028 -
Marcus Edwards Burnley Aktiv 153 / 145 40% 6 17.07.2028 -
Humberto Acevedo Union Magdalena Verloren 104 / 104 76% 1 17.07.2028 Befürworten
Amine Boukamir Charleroi Aktiv 103 / 112 40% 2 10.07.2028 -
Javier Duque Valledupar Aktiv 103 / 105 76% 1 10.07.2028 Befürworten
Diego Vargas Universidad de Concepcion Aktiv 93 / 98 40% 1 10.07.2028 -
Jaden Philogene Wolverhampton Aktiv 149 / 150 40% 5 03.07.2028 -
Brandon Thomas-Asante Blackpool Aktiv 133 / 124 40% 6 03.07.2028 -
Tyler Fletcher Rotherham United Aktiv 106 / 119 40% 3 05.06.2028 -
Simone Suppa Virtus Verona Aktiv 83 / 95 40% 1 05.06.2028 -
Yousef Salech Cardiff City Aktiv 138 / 133 40% 2 01.06.2028 -
Rodrigo Muniz Fulham Aktiv 137 / 142 40% 1 01.06.2028 -
Largie Ramazani Leeds United Aktiv 148 / 148 40% 1 31.05.2028 -
Patrick Agyemang Derby County Aktiv 138 / 129 40% 1 31.05.2028 -
Kasey McAteer Barnsley Aktiv 140 / 130 40% 3 30.05.2028 -
Jayden Danns Bradford City Aktiv 142 / 140 40% 1 28.05.2028 -
Stanley Mills Crewe Alexandra Aktiv 123 / 125 40% 2 27.05.2028 -
Vitaly Janelt Derby County Aktiv 146 / 151 40% 1 27.05.2028 -
Christos Mouzakitis Hull City Aktiv 133 / 138 40% 1 27.05.2028 -
Samuel Edozie Southampton Aktiv 140 / 132 40% 4 25.05.2028 -
Callum O'Hare Sheffield United Aktiv 132 / 137 40% 2 25.05.2028 -
William Osula Wrexham Aktiv 145 / 137 40% 5 24.05.2028 -
Ben Gannon Doak Charlton Athletic Aktiv 159 / 150 40% 12 23.05.2028 -
Abdoul Ouattara Port Vale Aktiv 128 / 132 40% 3 22.05.2028 -
Sorba Thomas Stoke City Aktiv 137 / 135 40% 2 20.05.2028 -
Konta Ismaily Aktiv 107 / 102 40% 1 18.05.2028 -
Nicolò Moranduzzo Renate Aktiv 93 / 94 40% 1 17.05.2028 -
Mohamed-Ali Cho Hull City Aktiv 153 / 139 40% 3 15.05.2028 -
Ayden Heaven Portsmouth Aktiv 141 / 148 40% 3 13.05.2028 -
Daniel Banjaqui Benfica Aktiv 123 / 124 40% 2 13.05.2028 -
Jeremy Sarmiento Middlesbrough Aktiv 133 / 139 40% 2 11.05.2028 -
Tyrese Campbell Sheffield United Aktiv 138 / 133 40% 3 07.05.2028 -
Juan David Sánchez Tigres Aktiv 91 / 94 52% 1 / 1m 03.05.2028 -
Orles Aragón Tigres Aktiv 103 / 103 42% 1 / 1m 03.05.2028 -
Cristian Peñate Alianza Petrolera Aktiv 95 / 98 30% 1 / 1m 03.05.2028 -
Riley McGree Middlesbrough Aktiv 132 / 133 40% 2 01.05.2028 -
Finn Azaz Southampton Aktiv 134 / 132 40% 1 29.04.2028 -
Andrey Ivlev Nizhniy Novgorod Aktiv 117 / 118 40% 1 23.04.2028 -
Dmytro Strilchuk Podillia Aktiv 92 / 89 40% 1 23.04.2028 -
Neco Williams Wrexham Aktiv 156 / 145 40% 1 21.04.2028 -
Demarai Gray Birmingham Aktiv 146 / 135 40% 1 21.04.2028 -
Josh Nichols Oldham Athletic Aktiv 117 / 129 40% 4 18.04.2028 -
Kelian Le Pironnec Mirandés Aktiv 100 / 108 40% 1 18.04.2028 -
Nuno Moreira Vasco da Gama Aktiv 136 / 130 40% 2 14.04.2028 -
Chemsdine Talbi Sunderland Aktiv 159 / 152 40% 1 14.04.2028 -
Tyreece Campbell Charlton Athletic Aktiv 129 / 120 40% 2 12.04.2028 -
Trey Nyoni Rotherham United Aktiv 136 / 141 40% 3 09.04.2028 -
Quilindschy Hartman Burnley Aktiv 151 / 145 40% 2 09.04.2028 -
Matvey Bardachev Zenit Aktiv 104 / 112 40% 1 09.04.2028 -
Matt O'Riley Brighton Aktiv 153 / 156 40% 1 07.04.2028 -
Andrés Gómez Vasco da Gama Aktiv 142 / 137 40% 2 05.04.2028 -
Erick Pulga Bahia Aktiv 131 / 134 40% 2 03.04.2028 -
Christian Kouamé Atlético Mineiro Aktiv 129 / 129 40% 2 03.04.2028 -
Jorthy Mokio ADO Den Haag Aktiv 141 / 135 40% 1 03.04.2028 -
Jan Bürger Northampton Town Aktiv 123 / 120 40% 1 03.04.2028 -
Marino Hinestroza Bahia Aktiv 123 / 127 40% 1 19.03.2028 -
Gustavo Albarracín Alavés Aktiv 113 / 119 40% 1 11.03.2028 -
Ryan Kavuma-McQueen Accrington Stanley Aktiv 119 / 127 40% 5 13.02.2028 -
Oscar Schwartau Norwich City Aktiv 135 / 135 40% 1 13.02.2028 -
Ryan McAidoo Oldham Athletic Aktiv 111 / 136 40% 4 12.02.2028 -
Henrique Carmo Sochi Aktiv 127 / 134 40% 2 12.02.2028 -
Ruben Ramos LA Galaxy Aktiv 98 / 104 40% 2 07.02.2028 -
Christ Wawa Gefle Aktiv 94 / 110 40% 2 07.02.2028 -
Luka Andrade Montevideo City Torque Aktiv 110 / 106 40% 2 05.02.2028 -
Esquerdinha Notts County Aktiv 124 / 127 40% 1 05.02.2028 -
Siyabonga Mabena Bidvest Wits Aktiv 113 / 132 40% 3 04.02.2028 -
Amin Nabizada Exeter City Aktiv 102 / 115 40% 1 04.02.2028 -
Benjamín Rodríguez Albion Aktiv 75 / 88 40% 1 03.02.2028 -
Romelle Donovan Brentford Aktiv 132 / 137 40% 1 03.02.2028 -
Honest Ahanor Atalanta Aktiv 125 / 146 40% 3 01.02.2028 -
Sindre Walle Egeli Udinese Aktiv 149 / 146 40% 2 01.02.2028 -
Tahiel Peralta Racing Club Aktiv 104 / 121 40% 1 01.02.2028 -
Mateo Peralta Danubio Aktiv 107 / 118 40% 2 31.01.2028 -
Alex Verón Vélez Aktiv 113 / 124 40% 1 31.01.2028 -
Pedro Baltika Aktiv 133 / 138 40% 5 30.01.2028 -
Francisco Triver River Plate Aktiv 93 / 97 40% 1 30.01.2028 -
Jeremías Merlo Gimnasia La Plata Aktiv 118 / 123 40% 2 29.01.2028 -
Mateus Mané Burnley Aktiv 143 / 152 40% 2 29.01.2028 -
Luca Meirelles Kudrivka Aktiv 130 / 130 40% 1 29.01.2028 -
Luca Williams-Barnett Walsall Aktiv 129 / 129 40% 2 28.01.2028 -
Eli Junior Kroupi Bournemouth Aktiv 136 / 147 40% 1 27.01.2028 -
Rémi Himbert AC Ajaccio Aktiv 121 / 125 40% 3 25.01.2028 -
Ibrahim Fullah Charlton Athletic Aktiv 126 / 127 40% 1 25.01.2028 -
Lander Astiazarán Real Sociedad Aktiv 105 / 120 40% 2 23.01.2028 -
Nicolás Ferreira Artigas Aktiv 85 / 89 40% 1 23.01.2028 -
Shea Lacey Crystal Palace Aktiv 121 / 141 40% 1 23.01.2028 -
Nicolás Barros Schelotto Gimnasia La Plata Aktiv 127 / 129 40% 3 22.01.2028 -
Bazoumana Touré Newcastle United Aktiv 141 / 146 40% 1 21.01.2028 -
Matías Arias Vélez Aktiv 111 / 121 40% 1 19.01.2028 -
Giovanni Baroni Talleres Aktiv 109 / 120 40% 1 17.01.2028 -
Gorka Gorosabel Real Sociedad Aktiv 113 / 119 40% 1 17.01.2028 -
Igor Tyjon Barrow AFC Aktiv 117 / 129 40% 1 14.01.2028 -
Victor Hernandez Santa Fe Aktiv 121 / 125 40% 3 11.01.2028 -
Matias Siltanen Malmo FF Aktiv 122 / 132 40% 1 11.01.2028 -
Francisco Marchant Colo-Colo Aktiv 97 / 100 40% 1 10.01.2028 -
Mateo Silvetti Seattle Sounders Aktiv 123 / 128 40% 1 05.01.2028 -
Juan Rodríguez Cerro Largo Aktiv 92 / 105 40% 1 05.01.2028 -
Luighi Palmeiras Aktiv 119 / 115 40% 1 05.01.2028 -
Edwin Mosquera Santa Fe Aktiv 123 / 119 40% 1 28.12.2027 -
Bruno Barticciotto Talleres Aktiv 122 / 126 40% 1 02.12.2027 -
Victor Olatunji Real Salt Lake Aktiv 122 / 118 40% 1 02.12.2027 -
Santiago González Sporting Cristal Aktiv 126 / 123 40% 1 30.11.2027 -
Eliás Montiel Borussia Dortmund Aktiv 127 / 142 40% 1 05.07.2027 -
Tiago Freitas Benfica Aktiv 124 / 119 40% 1 05.07.2027 -
Radek Vítek Middlesbrough Aktiv 133 / 138 40% 3 28.06.2027 -
Myles Roberts Cambridge United Aktiv 118 / 107 40% 2 21.06.2027 -
Anthony Patterson Wrexham Aktiv 122 / 131 40% 1 21.06.2027 -
Josh Keeley Luton Town Aktiv 129 / 124 40% 2 14.06.2027 -
Robin Roefs Sunderland Aktiv 143 / 144 40% 1 14.06.2027 -
Federico Pereira Toulouse FC Aktiv 135 / 135 66% 1 01.06.2027 Befürworten
Marvin Keller Chelsea Aktiv 136 / 137 67% 1 01.06.2027 Befürworten
Gianluca Scamacca Atalanta Aktiv 139 / 146 40% 1 01.06.2027 -
Patson Daka Leicester City Aktiv 121 / 124 40% 1 31.05.2027 -
Ilyas Ansah Hull City Aktiv 140 / 136 40% 1 31.05.2027 Mehr Infos nötig
Ronnie Edwards Queens Park Rangers Aktiv 130 / 127 40% 2 30.05.2027 -
Alfie Doughty Millwall Aktiv 128 / 132 40% 1 30.05.2027 -
Derry Murkin Derby County Aktiv 125 / 126 40% 1 30.05.2027 -
Matthew Targett Hull City Aktiv 130 / 126 40% 5 29.05.2027 -
Florentino Luís Ipswich Town Aktiv 141 / 139 40% 3 29.05.2027 -
James Trafford Leeds United Aktiv 138 / 147 40% 2 29.05.2027 -
Balázs Tóth Blackburn Rovers Aktiv 137 / 126 40% 3 29.05.2027 -
Alex Scott Bournemouth Aktiv 137 / 154 40% 4 28.05.2027 -
Callum Brittain Middlesbrough Aktiv 130 / 132 40% 2 28.05.2027 -
Adam Wharton Crystal Palace Aktiv 146 / 149 40% 1 26.05.2027 -
Jacob Greaves Ipswich Town Aktiv 151 / 136 40% 4 25.05.2027 -
Dara O'Shea Ipswich Town Aktiv 135 / 133 40% 4 25.05.2027 -
Milan van Ewijk Coventry City Aktiv 142 / 127 40% 2 25.05.2027 -
Fran Vieites Walsall Aktiv 132 / 121 40% 2 25.05.2027 -
Aidan Morris Middlesbrough Aktiv 134 / 135 40% 2 21.05.2027 -
Max Bird Birmingham Aktiv 139 / 131 40% 1 21.05.2027 -
Habib Diarra Sunderland Aktiv 137 / 138 40% 2 20.05.2027 -
Ousmane Diomande Nottingham Forest Aktiv 142 / 151 40% 1 20.05.2027 -
Alfie Whiteman Newport County Aktiv 105 / 104 40% 1 20.05.2027 -
Will Mannion Charlton Athletic Aktiv 106 / 116 40% 1 20.05.2027 -
Ferland Mendy Real Madrid Aktiv 140 / 148 40% 6 18.05.2027 -
Juanlu Bournemouth Aktiv 153 / 148 40% 2 18.05.2027 -
Will Dennis Milton Keynes Dons Aktiv 99 / 113 40% 3 17.05.2027 -
Riccardo Gagno Vicenza Aktiv 124 / 120 40% 1 17.05.2027 -
Elia Caprile Cagliari Aktiv 156 / 142 40% 2 16.05.2027 -
Nathan Trott Cardiff City Aktiv 118 / 131 40% 2 16.05.2027 -
Caoimhin Kelleher Brentford Aktiv 161 / 151 40% 2 15.05.2027 -
Vladan Kovačević Norwich City Aktiv 125 / 116 40% 1 15.05.2027 -
Filip Marschall Stevenage Aktiv 109 / 116 40% 2 14.05.2027 -
Nathan Bishop AFC Wimbledon Aktiv 95 / 103 40% 2 14.05.2027 -
Ryan Sessegnon Fulham Aktiv 145 / 148 40% 1 13.05.2027 -
Lewis O'Brien Wrexham Aktiv 123 / 123 40% 1 06.05.2027 -
Pelle Mattsson Norwich City Aktiv 112 / 131 40% 1 01.05.2027 -
Brooke Norton-Cuffy Hull City Aktiv 130 / 140 40% 4 30.04.2027 -
Raoul Bellanova Atalanta Aktiv 143 / 148 40% 2 30.04.2027 -
Jack Currie Oxford United Aktiv 135 / 121 40% 1 30.04.2027 -
Yehor Yarmoliuk Brentford Aktiv 160 / 143 40% 2 29.04.2027 -
Hidemasa Morita Hull City Aktiv 156 / 137 40% 3 27.04.2027 -
Toby Collyer West Bromwich Albion Aktiv 136 / 139 40% 1 25.04.2027 -
André Wolverhampton Aktiv 142 / 145 40% 1 20.04.2027 -
Harry Clarke Preston Aktiv 117 / 121 40% 3 16.04.2027 -
Azor Matusiwa Ipswich Town Aktiv 127 / 140 40% 2 16.04.2027 -
Darlin Yongwa Norwich City Aktiv 111 / 117 40% 1 13.04.2027 -
Oliver Skipp Leicester City Aktiv 128 / 126 40% 1 13.04.2027 -
Christopher Opéri Basaksehir Aktiv 120 / 133 40% 1 06.04.2027 -
Welington Southampton Aktiv 138 / 126 40% 3 05.04.2027 -
Nathan Collins Brentford Aktiv 134 / 153 40% 1 05.04.2027 -
Japhet Tanganga Sheffield United Aktiv 131 / 136 40% 1 02.04.2027 -
Jacques Ekomié Wrexham Aktiv 137 / 132 40% 1 01.04.2027 -
Aaron Hickey Brentford Aktiv 155 / 142 40% 1 01.04.2027 -
Antonee Robinson Fulham Aktiv 154 / 144 40% 3 27.03.2027 -
Toti Wolverhampton Aktiv 141 / 136 40% 1 27.03.2027 -
Kenny Tete Fulham Aktiv 138 / 135 40% 2 26.03.2027 -
Jordan Lotomba Bloemfontein Celtic Aktiv 121 / 126 40% 1 26.03.2027 -
Luke McNally Bristol City Aktiv 126 / 125 40% 1 25.03.2027 -
Daniel Muñoz Nottingham Forest Aktiv 160 / 150 40% 1 21.03.2027 -
César Araújo Tigres Aktiv 129 / 124 40% 2 02.12.2026 -
Víctor Guzmán Monterrey Aktiv 130 / 129 40% 2 02.12.2026 -
Carlos Jimenez Veracruz Aktiv 117 / 121 40% 1 02.12.2026 -
José Castillo Guadalajara Aktiv 125 / 116 40% 1 29.11.2026 -
Jackson Porozo Tijuana Aktiv 112 / 116 40% 1 29.11.2026 -
Agustín Palavecino Cruz Azul Aktiv 145 / 136 40% 1 28.11.2026 -
Sebastián Córdova Pumas UNAM Aktiv 133 / 129 40% 2 27.11.2026 -
Nacho Vidal Santos Laguna Aktiv 125 / 131 40% 5 24.11.2026 -
Carlos Rodríguez Cruz Azul Aktiv 140 / 137 40% 4 24.11.2026 -
Carlos Álvarez Club America Aktiv 138 / 140 40% 6 21.11.2026 -
Marcelino Moreno Lanús Aktiv 135 / 130 40% 4 20.11.2026 -
Carlos Gruezo Santos Laguna Aktiv 129 / 126 40% 2 19.11.2026 -
Edu Expósito Espanyol Aktiv 142 / 145 40% 1 15.11.2026 -
Saúl Salcedo Newell's Old Boys Aktiv 117 / 118 40% 2 14.11.2026 -
Diego Barbosa Toluca Aktiv 127 / 121 40% 1 14.11.2026 -
César Ibáñez Huracán Aktiv 118 / 121 40% 1 13.11.2026 -
Emanuel Mammana Vélez Aktiv 134 / 125 40% 1 13.11.2026 -
Richard Ledezma Guadalajara Aktiv 133 / 136 40% 4 12.11.2026 -
Víctor Guzmán Toluca Aktiv 132 / 129 40% 3 12.11.2026 -
Franco Ibarra Rosario Central Aktiv 128 / 129 40% 1 12.11.2026 -
Iván Tapia Barracas Central Aktiv 122 / 115 40% 1 12.11.2026 -
Matías Zaracho Racing Club Aktiv 131 / 128 40% 2 08.11.2026 -
Luis Romo Guadalajara Aktiv 132 / 136 40% 4 07.11.2026 -
Kevin Álvarez Club America Aktiv 138 / 129 40% 2 04.11.2026 -
Christian Rivera Pachuca Aktiv 127 / 124 40% 2 04.11.2026 -
José Florentín Independiente Rivadavia Aktiv 125 / 120 40% 2 03.11.2026 -
Gastón Hernández San Lorenzo Aktiv 122 / 125 40% 1 03.11.2026 -
Ricardo Chávez Monterrey Aktiv 131 / 127 40% 2 02.11.2026 -
Omar Campos Cruz Azul Aktiv 122 / 127 40% 2 02.11.2026 -
Carlos Rotondi Cruz Azul Aktiv 136 / 133 40% 2 01.11.2026 -
Leandro Lozano Boca Juniors Aktiv 123 / 125 40% 1 31.10.2026 -
Rodrigo Echeverría Leon Aktiv 132 / 126 40% 1 31.10.2026 -
Guido Mainero Platense Aktiv 124 / 127 40% 2 30.10.2026 -
Nazareno Colombo Racing Club Aktiv 124 / 125 40% 2 30.10.2026 -
Jesús Garza Tigres Aktiv 125 / 121 40% 1 28.10.2026 -
Fidel Ambríz Monterrey Aktiv 128 / 133 40% 1 27.10.2026 -
Manu Morlanes Mallorca Aktiv 143 / 132 40% 2 24.10.2026 -
Lucas Souto Defensa y Justicia Aktiv 133 / 120 40% 1 24.10.2026 -
Tiago Palacios Estudiantes Aktiv 124 / 128 40% 1 22.10.2026 -
Nicolás Tripichio San Lorenzo Aktiv 133 / 125 40% 1 21.10.2026 -
Fernando Beltrán Leon Aktiv 133 / 124 40% 3 15.10.2026 -
Erik Lira Cruz Azul Aktiv 133 / 131 40% 1 15.10.2026 -
Juninho Pumas UNAM Aktiv 133 / 127 40% 3 14.10.2026 -
Santiago Longo Belgrano Aktiv 134 / 128 40% 1 13.10.2026 -
Santiago Montiel Independiente Aktiv 118 / 127 40% 1 10.10.2026 -
Damián Fernández Defensa y Justicia Aktiv 129 / 125 40% 1 07.10.2026 -
Brian Rodríguez Club America Aktiv 124 / 128 40% 2 04.10.2026 -
Emanuel Coronel Rosario Central Aktiv 125 / 122 40% 1 30.09.2026 -
Alejandro Zendejas Club America Aktiv 138 / 137 40% 4 23.09.2026 -
Ander Guevara Racing Genk Aktiv 125 / 131 40% 2 15.09.2026 -
Manuel Capasso Atlas Aktiv 119 / 122 40% 1 10.09.2026 -
Brian Gutiérrez Guadalajara Aktiv 125 / 128 40% 1 02.09.2026 -
Jesús Angulo Tigres Aktiv 138 / 131 40% 1 01.09.2026 -
Bryan González Guadalajara Aktiv 128 / 129 40% 1 28.08.2026 -
Alexey Miranchuk Atlanta United FC Aktiv 136 / 144 40% 1 23.08.2026 -
Sergi Cardona KAA Gent Aktiv 154 / 152 40% 1 23.08.2026 -
Diego Enríquez Sporting Cristal Aktiv 133 / 130 40% 1 21.08.2026 -
Gerardo Arteaga Monterrey Aktiv 124 / 127 40% 1 18.08.2026 -
Luís Esteves Atlas Aktiv 135 / 124 40% 1 16.08.2026 -
Ángel González Libertad Aktiv 98 / 107 40% 1 14.08.2026 -
Tomás Ahumada Audax Italiano Aktiv 105 / 105 40% 1 13.08.2026 -
Álvaro Angulo Pumas UNAM Aktiv 129 / 124 40% 1 10.08.2026 -
Bruno Méndez Toluca Aktiv 128 / 125 40% 1 07.08.2026 -
Frankarlos Benítez Caracas Aktiv 92 / 105 40% 1 05.08.2026 -
Jorge Sánchez Atlas Aktiv 122 / 128 40% 1 03.08.2026 -